Terminal Aerodrome Forecast
Issued by NWS Kansas City/Pleasant Hill, MO

Home | Current Version | Previous Version | Text Only | Print | Product List | Glossary On
Versions: 1 2 3 4 5 6 7 8 9 10 11 12 13 14 15 16 17 18 19
000
FTUS43 KEAX 170500
TAFMCI
TAF
KMCI 170520Z 1706/1806 36005KT P6SM SKC
     FM171000 VRB03KT 3SM BR SKC
      TEMPO 1711/1713 1SM BR BKN003
     FM171500 03005KT P6SM BKN025
     FM171800 05006KT P6SM SCT050=

USA.gov is the U.S. government's official web portal to all federal, state and local government web resources and services.